sensor_id;sensor_type;location;lat;lon;timestamp;temperature;humidity
27858;DHT22;16852;51.446;6.528;2022-12-07T00:00:39;6.60;99.90
27858;DHT22;16852;51.446;6.528;2022-12-07T00:02:40;6.70;99.90
27858;DHT22;16852;51.446;6.528;2022-12-07T00:04:40;6.60;99.90
27858;DHT22;16852;51.446;6.528;2022-12-07T00:06:43;6.60;99.90
27858;DHT22;16852;51.446;6.528;2022-12-07T00:08:45;6.60;99.90
27858;DHT22;16852;51.446;6.528;2022-12-07T00:10:46;6.60;99.90
27858;DHT22;16852;51.446;6.528;2022-12-07T00:12:46;6.60;99.90
27858;DHT22;16852;51.446;6.528;2022-12-07T00:14:47;6.60;99.90
27858;DHT22;16852;51.446;6.528;2022-12-07T00:16:49;6.60;99.90
27858;DHT22;16852;51.446;6.528;2022-12-07T00:18:51;6.60;99.90
27858;DHT22;16852;51.446;6.528;2022-12-07T00:20:51;6.50;99.90
27858;DHT22;16852;51.446;6.528;2022-12-07T00:22:52;6.50;99.90
27858;DHT22;16852;51.446;6.528;2022-12-07T00:24:52;6.50;99.90
27858;DHT22;16852;51.446;6.528;2022-12-07T00:26:53;6.50;99.90
27858;DHT22;16852;51.446;6.528;2022-12-07T00:28:56;6.60;99.90
27858;DHT22;16852;51.446;6.528;2022-12-07T00:31:08;6.50;99.90
27858;DHT22;16852;51.446;6.528;2022-12-07T00:33:09;6.50;99.90
27858;DHT22;16852;51.446;6.528;2022-12-07T00:35:10;6.50;99.90
27858;DHT22;16852;51.446;6.528;2022-12-07T00:37:10;6.50;99.90
27858;DHT22;16852;51.446;6.528;2022-12-07T00:39:13;6.50;99.90
27858;DHT22;16852;51.446;6.528;2022-12-07T00:41:16;6.50;99.90
27858;DHT22;16852;51.446;6.528;2022-12-07T00:43:17;6.50;99.90
27858;DHT22;16852;51.446;6.528;2022-12-07T00:45:17;6.50;99.90
27858;DHT22;16852;51.446;6.528;2022-12-07T00:47:18;6.50;99.90
27858;DHT22;16852;51.446;6.528;2022-12-07T00:49:19;6.50;99.90
27858;DHT22;16852;51.446;6.528;2022-12-07T00:51:21;6.40;99.90
27858;DHT22;16852;51.446;6.528;2022-12-07T00:53:23;6.40;99.90
27858;DHT22;16852;51.446;6.528;2022-12-07T00:55:23;6.40;99.90
27858;DHT22;16852;51.446;6.528;2022-12-07T00:57:24;6.40;99.90
27858;DHT22;16852;51.446;6.528;2022-12-07T00:59:24;6.40;99.90
27858;DHT22;16852;51.446;6.528;2022-12-07T01:01:27;6.40;99.90
27858;DHT22;16852;51.446;6.528;2022-12-07T01:03:29;6.40;99.90
27858;DHT22;16852;51.446;6.528;2022-12-07T01:05:29;6.40;99.90
27858;DHT22;16852;51.446;6.528;2022-12-07T01:07:30;6.40;99.90
27858;DHT22;16852;51.446;6.528;2022-12-07T01:09:30;6.40;99.90
27858;DHT22;16852;51.446;6.528;2022-12-07T01:11:31;6.40;99.90
27858;DHT22;16852;51.446;6.528;2022-12-07T01:13:34;6.40;99.90
27858;DHT22;16852;51.446;6.528;2022-12-07T01:15:34;6.40;99.90
27858;DHT22;16852;51.446;6.528;2022-12-07T01:17:38;6.40;99.90
27858;DHT22;16852;51.446;6.528;2022-12-07T01:19:39;6.30;99.90
27858;DHT22;16852;51.446;6.528;2022-12-07T01:21:40;6.40;99.90
27858;DHT22;16852;51.446;6.528;2022-12-07T01:23:40;6.40;99.90
27858;DHT22;16852;51.446;6.528;2022-12-07T01:25:42;6.40;99.90
27858;DHT22;16852;51.446;6.528;2022-12-07T01:27:42;6.40;99.90
27858;DHT22;16852;51.446;6.528;2022-12-07T01:29:43;6.40;99.90
27858;DHT22;16852;51.446;6.528;2022-12-07T01:31:43;6.40;99.90
27858;DHT22;16852;51.446;6.528;2022-12-07T01:33:47;6.30;99.90
27858;DHT22;16852;51.446;6.528;2022-12-07T01:35:48;6.30;99.90
27858;DHT22;16852;51.446;6.528;2022-12-07T01:37:48;6.30;99.90
27858;DHT22;16852;51.446;6.528;2022-12-07T01:39:52;6.30;99.90
27858;DHT22;16852;51.446;6.528;2022-12-07T01:41:53;6.20;99.90
27858;DHT22;16852;51.446;6.528;2022-12-07T01:44:16;6.20;99.90
27858;DHT22;16852;51.446;6.528;2022-12-07T01:46:17;6.30;99.90
27858;DHT22;16852;51.446;6.528;2022-12-07T01:48:22;6.30;99.90
27858;DHT22;16852;51.446;6.528;2022-12-07T01:50:27;6.20;99.90
27858;DHT22;16852;51.446;6.528;2022-12-07T01:52:31;6.20;99.90
27858;DHT22;16852;51.446;6.528;2022-12-07T01:54:34;6.20;99.90
27858;DHT22;16852;51.446;6.528;2022-12-07T01:56:36;6.20;99.90
27858;DHT22;16852;51.446;6.528;2022-12-07T01:58:37;6.20;99.90
27858;DHT22;16852;51.446;6.528;2022-12-07T02:00:38;6.20;99.90
27858;DHT22;16852;51.446;6.528;2022-12-07T02:02:55;6.20;99.90
27858;DHT22;16852;51.446;6.528;2022-12-07T02:04:56;6.20;99.90
27858;DHT22;16852;51.446;6.528;2022-12-07T02:06:57;6.20;99.90
27858;DHT22;16852;51.446;6.528;2022-12-07T02:08:58;6.20;99.90
27858;DHT22;16852;51.446;6.528;2022-12-07T02:11:00;6.20;99.90
27858;DHT22;16852;51.446;6.528;2022-12-07T02:13:06;6.20;99.90
27858;DHT22;16852;51.446;6.528;2022-12-07T02:15:08;6.20;99.90
27858;DHT22;16852;51.446;6.528;2022-12-07T02:17:25;6.20;99.90
27858;DHT22;16852;51.446;6.528;2022-12-07T02:22:29;6.00;99.90
27858;DHT22;16852;51.446;6.528;2022-12-07T02:24:54;6.00;99.90
27858;DHT22;16852;51.446;6.528;2022-12-07T02:27:22;6.00;99.90
27858;DHT22;16852;51.446;6.528;2022-12-07T02:29:47;6.10;99.90
27858;DHT22;16852;51.446;6.528;2022-12-07T02:32:10;6.00;99.90
27858;DHT22;16852;51.446;6.528;2022-12-07T02:34:20;6.00;99.90
27858;DHT22;16852;51.446;6.528;2022-12-07T02:36:27;6.00;99.90
27858;DHT22;16852;51.446;6.528;2022-12-07T02:38:45;6.00;99.90
27858;DHT22;16852;51.446;6.528;2022-12-07T02:40:57;6.00;99.90
27858;DHT22;16852;51.446;6.528;2022-12-07T02:45:09;5.90;99.90
27858;DHT22;16852;51.446;6.528;2022-12-07T02:47:13;5.90;99.90
27858;DHT22;16852;51.446;6.528;2022-12-07T02:49:15;5.90;99.90
27858;DHT22;16852;51.446;6.528;2022-12-07T02:51:18;6.00;99.90
27858;DHT22;16852;51.446;6.528;2022-12-07T02:53:47;5.90;99.90
27858;DHT22;16852;51.446;6.528;2022-12-07T02:55:48;5.90;99.90
27858;DHT22;16852;51.446;6.528;2022-12-07T03:00:06;6.00;99.90
27858;DHT22;16852;51.446;6.528;2022-12-07T03:07:08;5.90;99.90
27858;DHT22;16852;51.446;6.528;2022-12-07T03:09:25;5.90;99.90
27858;DHT22;16852;51.446;6.528;2022-12-07T03:11:51;5.90;99.90
27858;DHT22;16852;51.446;6.528;2022-12-07T03:14:13;5.90;99.90
27858;DHT22;16852;51.446;6.528;2022-12-07T03:18:20;5.90;99.90
27858;DHT22;16852;51.446;6.528;2022-12-07T03:20:22;5.80;99.90
27858;DHT22;16852;51.446;6.528;2022-12-07T03:22:28;5.80;99.90
27858;DHT22;16852;51.446;6.528;2022-12-07T03:24:37;5.80;99.90
27858;DHT22;16852;51.446;6.528;2022-12-07T03:26:44;5.80;99.90
27858;DHT22;16852;51.446;6.528;2022-12-07T03:28:52;5.80;99.90
27858;DHT22;16852;51.446;6.528;2022-12-07T03:31:11;5.80;99.90
27858;DHT22;16852;51.446;6.528;2022-12-07T03:33:25;5.70;99.90
27858;DHT22;16852;51.446;6.528;2022-12-07T03:35:35;5.70;99.90
27858;DHT22;16852;51.446;6.528;2022-12-07T03:37:40;5.70;99.90
27858;DHT22;16852;51.446;6.528;2022-12-07T03:39:49;5.60;99.90
27858;DHT22;16852;51.446;6.528;2022-12-07T03:41:54;5.60;99.90
27858;DHT22;16852;51.446;6.528;2022-12-07T03:43:55;5.60;99.90
27858;DHT22;16852;51.446;6.528;2022-12-07T03:48:42;5.50;99.90
27858;DHT22;16852;51.446;6.528;2022-12-07T03:50:55;5.50;99.90
27858;DHT22;16852;51.446;6.528;2022-12-07T03:53:03;5.50;99.90
27858;DHT22;16852;51.446;6.528;2022-12-07T03:57:33;5.50;99.90
27858;DHT22;16852;51.446;6.528;2022-12-07T03:59:36;5.50;99.90
27858;DHT22;16852;51.446;6.528;2022-12-07T04:01:37;5.50;99.90
27858;DHT22;16852;51.446;6.528;2022-12-07T04:03:38;5.40;99.90
27858;DHT22;16852;51.446;6.528;2022-12-07T04:05:39;5.40;99.90
27858;DHT22;16852;51.446;6.528;2022-12-07T04:07:40;5.50;99.90
27858;DHT22;16852;51.446;6.528;2022-12-07T04:09:41;5.50;99.90
27858;DHT22;16852;51.446;6.528;2022-12-07T04:11:41;5.50;99.90
27858;DHT22;16852;51.446;6.528;2022-12-07T04:13:42;5.50;99.90
27858;DHT22;16852;51.446;6.528;2022-12-07T04:16:01;5.50;99.90
27858;DHT22;16852;51.446;6.528;2022-12-07T04:18:02;5.50;99.90
27858;DHT22;16852;51.446;6.528;2022-12-07T04:20:04;5.50;99.90
27858;DHT22;16852;51.446;6.528;2022-12-07T04:22:05;5.50;99.90
27858;DHT22;16852;51.446;6.528;2022-12-07T04:24:06;5.50;99.90
27858;DHT22;16852;51.446;6.528;2022-12-07T04:26:07;5.50;99.90
27858;DHT22;16852;51.446;6.528;2022-12-07T04:28:07;5.50;99.90
27858;DHT22;16852;51.446;6.528;2022-12-07T04:30:08;5.40;99.90
27858;DHT22;16852;51.446;6.528;2022-12-07T04:32:09;5.40;99.90
27858;DHT22;16852;51.446;6.528;2022-12-07T04:34:10;5.40;99.90
27858;DHT22;16852;51.446;6.528;2022-12-07T04:36:11;5.40;99.90
27858;DHT22;16852;51.446;6.528;2022-12-07T04:38:11;5.40;99.90
27858;DHT22;16852;51.446;6.528;2022-12-07T04:40:12;5.40;99.90
27858;DHT22;16852;51.446;6.528;2022-12-07T04:42:14;5.30;99.90
27858;DHT22;16852;51.446;6.528;2022-12-07T04:44:16;5.30;99.90
27858;DHT22;16852;51.446;6.528;2022-12-07T04:46:17;5.30;99.90
27858;DHT22;16852;51.446;6.528;2022-12-07T04:48:17;5.30;99.90
27858;DHT22;16852;51.446;6.528;2022-12-07T04:50:18;5.30;99.90
27858;DHT22;16852;51.446;6.528;2022-12-07T04:52:18;5.30;99.90
27858;DHT22;16852;51.446;6.528;2022-12-07T04:54:19;5.30;99.90
27858;DHT22;16852;51.446;6.528;2022-12-07T04:56:20;5.30;99.90
27858;DHT22;16852;51.446;6.528;2022-12-07T04:58:21;5.40;99.90
27858;DHT22;16852;51.446;6.528;2022-12-07T05:00:21;5.30;99.90
27858;DHT22;16852;51.446;6.528;2022-12-07T05:02:22;5.30;99.90
27858;DHT22;16852;51.446;6.528;2022-12-07T05:04:22;5.40;99.90
27858;DHT22;16852;51.446;6.528;2022-12-07T05:06:23;5.40;99.90
27858;DHT22;16852;51.446;6.528;2022-12-07T05:08:24;5.40;99.90
27858;DHT22;16852;51.446;6.528;2022-12-07T05:10:24;5.40;99.90
27858;DHT22;16852;51.446;6.528;2022-12-07T05:12:25;5.40;99.90
27858;DHT22;16852;51.446;6.528;2022-12-07T05:14:26;5.50;99.90
27858;DHT22;16852;51.446;6.528;2022-12-07T05:16:26;5.50;99.90
27858;DHT22;16852;51.446;6.528;2022-12-07T05:18:27;5.50;99.90
27858;DHT22;16852;51.446;6.528;2022-12-07T05:20:28;5.50;99.90
27858;DHT22;16852;51.446;6.528;2022-12-07T05:22:28;5.50;99.90
27858;DHT22;16852;51.446;6.528;2022-12-07T05:24:29;5.50;99.90
27858;DHT22;16852;51.446;6.528;2022-12-07T05:26:30;5.50;99.90
27858;DHT22;16852;51.446;6.528;2022-12-07T05:28:31;5.60;99.90
27858;DHT22;16852;51.446;6.528;2022-12-07T05:30:31;5.60;99.90
27858;DHT22;16852;51.446;6.528;2022-12-07T05:32:32;5.60;99.90
27858;DHT22;16852;51.446;6.528;2022-12-07T05:34:32;5.60;99.90
27858;DHT22;16852;51.446;6.528;2022-12-07T05:36:33;5.60;99.90
27858;DHT22;16852;51.446;6.528;2022-12-07T05:38:34;5.60;99.90
27858;DHT22;16852;51.446;6.528;2022-12-07T05:40:34;5.60;99.90
27858;DHT22;16852;51.446;6.528;2022-12-07T05:42:36;5.60;99.90
27858;DHT22;16852;51.446;6.528;2022-12-07T05:44:38;5.60;99.90
27858;DHT22;16852;51.446;6.528;2022-12-07T05:46:39;5.60;99.90
27858;DHT22;16852;51.446;6.528;2022-12-07T05:48:39;5.60;99.90
27858;DHT22;16852;51.446;6.528;2022-12-07T05:50:40;5.60;99.90
27858;DHT22;16852;51.446;6.528;2022-12-07T05:52:40;5.50;99.90
27858;DHT22;16852;51.446;6.528;2022-12-07T05:54:41;5.60;99.90
27858;DHT22;16852;51.446;6.528;2022-12-07T05:56:41;5.50;99.90
27858;DHT22;16852;51.446;6.528;2022-12-07T05:58:42;5.60;99.90
27858;DHT22;16852;51.446;6.528;2022-12-07T06:01:01;5.60;99.90
27858;DHT22;16852;51.446;6.528;2022-12-07T06:03:02;5.50;99.90
27858;DHT22;16852;51.446;6.528;2022-12-07T06:05:02;5.50;99.90
27858;DHT22;16852;51.446;6.528;2022-12-07T06:07:04;5.60;99.90
27858;DHT22;16852;51.446;6.528;2022-12-07T06:09:05;5.50;99.90
27858;DHT22;16852;51.446;6.528;2022-12-07T06:11:05;5.60;99.90
27858;DHT22;16852;51.446;6.528;2022-12-07T06:13:25;5.50;99.90
27858;DHT22;16852;51.446;6.528;2022-12-07T06:15:25;5.60;99.90
27858;DHT22;16852;51.446;6.528;2022-12-07T06:17:26;5.60;99.90
27858;DHT22;16852;51.446;6.528;2022-12-07T06:19:27;5.60;99.90
27858;DHT22;16852;51.446;6.528;2022-12-07T06:21:27;5.60;99.90
27858;DHT22;16852;51.446;6.528;2022-12-07T06:23:28;5.60;99.90
27858;DHT22;16852;51.446;6.528;2022-12-07T06:25:29;5.50;99.90
27858;DHT22;16852;51.446;6.528;2022-12-07T06:27:29;5.60;99.90
27858;DHT22;16852;51.446;6.528;2022-12-07T06:29:30;5.60;99.90
27858;DHT22;16852;51.446;6.528;2022-12-07T06:31:30;5.60;99.90
27858;DHT22;16852;51.446;6.528;2022-12-07T06:33:31;5.60;99.90
27858;DHT22;16852;51.446;6.528;2022-12-07T06:35:33;5.60;99.90
27858;DHT22;16852;51.446;6.528;2022-12-07T06:37:33;5.50;99.90
27858;DHT22;16852;51.446;6.528;2022-12-07T06:39:34;5.50;99.90
27858;DHT22;16852;51.446;6.528;2022-12-07T06:41:38;5.50;99.90
27858;DHT22;16852;51.446;6.528;2022-12-07T06:43:39;5.50;99.90
27858;DHT22;16852;51.446;6.528;2022-12-07T06:45:41;5.50;99.90
27858;DHT22;16852;51.446;6.528;2022-12-07T06:47:41;5.60;99.90
27858;DHT22;16852;51.446;6.528;2022-12-07T06:49:42;5.60;99.90
27858;DHT22;16852;51.446;6.528;2022-12-07T06:51:43;5.60;99.90
27858;DHT22;16852;51.446;6.528;2022-12-07T06:53:44;5.60;99.90
27858;DHT22;16852;51.446;6.528;2022-12-07T06:55:44;5.60;99.90
27858;DHT22;16852;51.446;6.528;2022-12-07T06:57:45;5.60;99.90
27858;DHT22;16852;51.446;6.528;2022-12-07T06:59:45;5.60;99.90
27858;DHT22;16852;51.446;6.528;2022-12-07T07:01:46;5.60;99.90
27858;DHT22;16852;51.446;6.528;2022-12-07T07:03:47;5.60;99.90
27858;DHT22;16852;51.446;6.528;2022-12-07T07:05:48;5.60;99.90
27858;DHT22;16852;51.446;6.528;2022-12-07T07:07:49;5.60;99.90
27858;DHT22;16852;51.446;6.528;2022-12-07T07:09:50;5.60;99.90
27858;DHT22;16852;51.446;6.528;2022-12-07T07:11:50;5.60;99.90
27858;DHT22;16852;51.446;6.528;2022-12-07T07:13:51;5.50;99.90
27858;DHT22;16852;51.446;6.528;2022-12-07T07:15:51;5.50;99.90
27858;DHT22;16852;51.446;6.528;2022-12-07T07:17:52;5.50;99.90
27858;DHT22;16852;51.446;6.528;2022-12-07T07:19:53;5.50;99.90
27858;DHT22;16852;51.446;6.528;2022-12-07T07:21:53;5.50;99.90
27858;DHT22;16852;51.446;6.528;2022-12-07T07:23:54;5.50;99.90
27858;DHT22;16852;51.446;6.528;2022-12-07T07:25:54;5.40;99.90
27858;DHT22;16852;51.446;6.528;2022-12-07T07:27:55;5.40;99.90
27858;DHT22;16852;51.446;6.528;2022-12-07T07:29:56;5.40;99.90
27858;DHT22;16852;51.446;6.528;2022-12-07T07:31:56;5.40;99.90
27858;DHT22;16852;51.446;6.528;2022-12-07T07:33:57;5.40;99.90
27858;DHT22;16852;51.446;6.528;2022-12-07T07:35:57;5.40;99.90
27858;DHT22;16852;51.446;6.528;2022-12-07T07:37:59;5.40;99.90
27858;DHT22;16852;51.446;6.528;2022-12-07T07:40:00;5.40;99.90
27858;DHT22;16852;51.446;6.528;2022-12-07T07:42:01;5.30;99.90
27858;DHT22;16852;51.446;6.528;2022-12-07T07:44:01;5.30;99.90
27858;DHT22;16852;51.446;6.528;2022-12-07T07:46:02;5.30;99.90
27858;DHT22;16852;51.446;6.528;2022-12-07T07:48:03;5.30;99.90
27858;DHT22;16852;51.446;6.528;2022-12-07T07:50:03;5.20;99.90
27858;DHT22;16852;51.446;6.528;2022-12-07T07:52:05;5.30;99.90
27858;DHT22;16852;51.446;6.528;2022-12-07T07:54:06;5.20;99.90
27858;DHT22;16852;51.446;6.528;2022-12-07T07:56:07;5.20;99.90
27858;DHT22;16852;51.446;6.528;2022-12-07T07:58:07;5.20;99.90
27858;DHT22;16852;51.446;6.528;2022-12-07T08:00:11;5.30;99.90
27858;DHT22;16852;51.446;6.528;2022-12-07T08:02:17;5.30;99.90
27858;DHT22;16852;51.446;6.528;2022-12-07T08:04:18;5.20;99.90
27858;DHT22;16852;51.446;6.528;2022-12-07T08:06:18;5.30;99.90
27858;DHT22;16852;51.446;6.528;2022-12-07T08:08:19;5.20;99.90
27858;DHT22;16852;51.446;6.528;2022-12-07T08:10:19;5.30;99.90
27858;DHT22;16852;51.446;6.528;2022-12-07T08:12:20;5.40;99.90
27858;DHT22;16852;51.446;6.528;2022-12-07T08:14:20;5.40;99.90
27858;DHT22;16852;51.446;6.528;2022-12-07T08:16:21;5.50;99.90
27858;DHT22;16852;51.446;6.528;2022-12-07T08:18:22;5.50;99.90
27858;DHT22;16852;51.446;6.528;2022-12-07T08:20:22;5.50;99.90
27858;DHT22;16852;51.446;6.528;2022-12-07T08:22:23;5.50;99.90
27858;DHT22;16852;51.446;6.528;2022-12-07T08:24:24;5.50;99.90
27858;DHT22;16852;51.446;6.528;2022-12-07T08:26:25;5.50;99.90
27858;DHT22;16852;51.446;6.528;2022-12-07T08:28:26;5.60;99.90
27858;DHT22;16852;51.446;6.528;2022-12-07T08:30:27;5.50;99.90
27858;DHT22;16852;51.446;6.528;2022-12-07T08:32:28;5.50;99.90
27858;DHT22;16852;51.446;6.528;2022-12-07T08:34:28;5.60;99.90
27858;DHT22;16852;51.446;6.528;2022-12-07T08:36:29;5.60;99.90
27858;DHT22;16852;51.446;6.528;2022-12-07T08:38:30;5.60;99.90
27858;DHT22;16852;51.446;6.528;2022-12-07T08:40:30;5.60;99.90
27858;DHT22;16852;51.446;6.528;2022-12-07T08:42:31;5.60;99.90
27858;DHT22;16852;51.446;6.528;2022-12-07T08:44:38;5.70;99.90
27858;DHT22;16852;51.446;6.528;2022-12-07T08:46:51;5.70;99.90
27858;DHT22;16852;51.446;6.528;2022-12-07T08:48:56;5.60;99.90
27858;DHT22;16852;51.446;6.528;2022-12-07T08:50:58;5.70;99.90
27858;DHT22;16852;51.446;6.528;2022-12-07T08:53:02;5.70;99.90
27858;DHT22;16852;51.446;6.528;2022-12-07T08:55:05;5.60;99.90
27858;DHT22;16852;51.446;6.528;2022-12-07T08:57:06;5.70;99.90
27858;DHT22;16852;51.446;6.528;2022-12-07T08:59:08;5.70;99.90
27858;DHT22;16852;51.446;6.528;2022-12-07T09:01:09;5.70;99.90
27858;DHT22;16852;51.446;6.528;2022-12-07T09:03:09;5.70;99.90
27858;DHT22;16852;51.446;6.528;2022-12-07T09:05:11;5.70;99.90
27858;DHT22;16852;51.446;6.528;2022-12-07T09:07:11;5.70;99.90
27858;DHT22;16852;51.446;6.528;2022-12-07T09:09:13;5.80;99.90
27858;DHT22;16852;51.446;6.528;2022-12-07T09:11:14;5.80;99.90
27858;DHT22;16852;51.446;6.528;2022-12-07T09:13:15;5.80;99.90
27858;DHT22;16852;51.446;6.528;2022-12-07T09:15:15;5.80;99.90
27858;DHT22;16852;51.446;6.528;2022-12-07T09:17:16;5.80;99.90
27858;DHT22;16852;51.446;6.528;2022-12-07T09:19:17;5.80;99.90
27858;DHT22;16852;51.446;6.528;2022-12-07T09:21:17;5.90;99.90
27858;DHT22;16852;51.446;6.528;2022-12-07T09:23:18;5.90;99.90
27858;DHT22;16852;51.446;6.528;2022-12-07T09:25:18;5.90;99.90
27858;DHT22;16852;51.446;6.528;2022-12-07T09:27:19;5.90;99.90
27858;DHT22;16852;51.446;6.528;2022-12-07T09:29:19;5.90;99.90
27858;DHT22;16852;51.446;6.528;2022-12-07T09:31:20;5.90;99.90
27858;DHT22;16852;51.446;6.528;2022-12-07T09:33:21;6.00;99.90
27858;DHT22;16852;51.446;6.528;2022-12-07T09:35:21;6.10;99.90
27858;DHT22;16852;51.446;6.528;2022-12-07T09:37:22;6.20;99.90
27858;DHT22;16852;51.446;6.528;2022-12-07T09:39:23;6.30;99.90
27858;DHT22;16852;51.446;6.528;2022-12-07T09:41:25;6.40;99.90
27858;DHT22;16852;51.446;6.528;2022-12-07T09:43:26;6.40;99.90
27858;DHT22;16852;51.446;6.528;2022-12-07T09:45:32;6.50;99.90
27858;DHT22;16852;51.446;6.528;2022-12-07T09:47:34;6.60;99.90
27858;DHT22;16852;51.446;6.528;2022-12-07T09:49:34;6.60;99.90
27858;DHT22;16852;51.446;6.528;2022-12-07T09:51:35;6.70;99.90
27858;DHT22;16852;51.446;6.528;2022-12-07T09:53:38;6.70;99.90
27858;DHT22;16852;51.446;6.528;2022-12-07T09:55:41;6.80;99.90
27858;DHT22;16852;51.446;6.528;2022-12-07T09:57:42;6.90;99.90
27858;DHT22;16852;51.446;6.528;2022-12-07T09:59:43;6.90;99.90
27858;DHT22;16852;51.446;6.528;2022-12-07T10:01:46;6.90;99.90
27858;DHT22;16852;51.446;6.528;2022-12-07T10:03:54;7.00;99.90
27858;DHT22;16852;51.446;6.528;2022-12-07T10:05:56;7.00;99.90
27858;DHT22;16852;51.446;6.528;2022-12-07T10:07:57;7.10;99.90
27858;DHT22;16852;51.446;6.528;2022-12-07T10:09:58;7.10;99.90
27858;DHT22;16852;51.446;6.528;2022-12-07T10:12:07;7.10;99.90
27858;DHT22;16852;51.446;6.528;2022-12-07T10:14:12;7.20;99.90
27858;DHT22;16852;51.446;6.528;2022-12-07T10:20:36;7.20;99.90
27858;DHT22;16852;51.446;6.528;2022-12-07T10:22:37;7.30;99.90
27858;DHT22;16852;51.446;6.528;2022-12-07T10:24:40;7.30;99.90
27858;DHT22;16852;51.446;6.528;2022-12-07T10:28:48;7.40;99.90
27858;DHT22;16852;51.446;6.528;2022-12-07T10:31:14;7.30;99.90
27858;DHT22;16852;51.446;6.528;2022-12-07T10:33:37;7.30;99.90
27858;DHT22;16852;51.446;6.528;2022-12-07T10:35:43;7.30;99.90
27858;DHT22;16852;51.446;6.528;2022-12-07T10:37:43;7.30;99.90
27858;DHT22;16852;51.446;6.528;2022-12-07T10:39:52;7.30;99.90
27858;DHT22;16852;51.446;6.528;2022-12-07T10:42:00;7.30;99.90
27858;DHT22;16852;51.446;6.528;2022-12-07T10:44:01;7.40;99.90
27858;DHT22;16852;51.446;6.528;2022-12-07T10:46:24;7.40;99.90
27858;DHT22;16852;51.446;6.528;2022-12-07T11:02:01;7.50;99.90
27858;DHT22;16852;51.446;6.528;2022-12-07T11:06:36;7.50;99.90
27858;DHT22;16852;51.446;6.528;2022-12-07T11:11:38;7.50;99.90
27858;DHT22;16852;51.446;6.528;2022-12-07T11:16:23;7.50;99.90
27858;DHT22;16852;51.446;6.528;2022-12-07T11:23:16;7.60;99.90
27858;DHT22;16852;51.446;6.528;2022-12-07T11:25:32;7.60;99.90
27858;DHT22;16852;51.446;6.528;2022-12-07T11:29:59;7.50;99.90
27858;DHT22;16852;51.446;6.528;2022-12-07T11:38:47;7.50;99.90
27858;DHT22;16852;51.446;6.528;2022-12-07T11:40:54;7.60;99.90
27858;DHT22;16852;51.446;6.528;2022-12-07T11:43:21;7.60;99.90
27858;DHT22;16852;51.446;6.528;2022-12-07T11:45:31;7.60;99.90
27858;DHT22;16852;51.446;6.528;2022-12-07T11:47:51;7.60;99.90
27858;DHT22;16852;51.446;6.528;2022-12-07T11:50:13;7.60;99.90
27858;DHT22;16852;51.446;6.528;2022-12-07T11:52:55;7.60;99.90
27858;DHT22;16852;51.446;6.528;2022-12-07T11:54:47;7.60;99.90
27858;DHT22;16852;51.446;6.528;2022-12-07T11:56:51;7.60;99.90
27858;DHT22;16852;51.446;6.528;2022-12-07T11:58:58;7.60;99.90
27858;DHT22;16852;51.446;6.528;2022-12-07T12:03:26;7.60;99.90
27858;DHT22;16852;51.446;6.528;2022-12-07T12:05:30;7.60;99.90
27858;DHT22;16852;51.446;6.528;2022-12-07T12:07:31;7.60;99.90
27858;DHT22;16852;51.446;6.528;2022-12-07T12:09:35;7.60;99.90
27858;DHT22;16852;51.446;6.528;2022-12-07T12:14:21;7.60;99.90
27858;DHT22;16852;51.446;6.528;2022-12-07T12:16:45;7.60;99.90
27858;DHT22;16852;51.446;6.528;2022-12-07T12:21:10;7.60;99.90
27858;DHT22;16852;51.446;6.528;2022-12-07T12:23:16;7.60;99.90
27858;DHT22;16852;51.446;6.528;2022-12-07T12:26:03;7.60;99.90
27858;DHT22;16852;51.446;6.528;2022-12-07T12:27:58;7.60;99.90
27858;DHT22;16852;51.446;6.528;2022-12-07T12:30:03;7.60;99.90
27858;DHT22;16852;51.446;6.528;2022-12-07T12:32:08;7.60;99.90
27858;DHT22;16852;51.446;6.528;2022-12-07T12:34:32;7.60;99.90
27858;DHT22;16852;51.446;6.528;2022-12-07T12:41:00;7.60;99.90
27858;DHT22;16852;51.446;6.528;2022-12-07T12:43:01;7.70;99.90
27858;DHT22;16852;51.446;6.528;2022-12-07T12:45:28;7.70;99.90
27858;DHT22;16852;51.446;6.528;2022-12-07T12:47:43;7.70;99.90
27858;DHT22;16852;51.446;6.528;2022-12-07T12:50:15;7.70;99.90
27858;DHT22;16852;51.446;6.528;2022-12-07T12:54:39;7.70;99.90
27858;DHT22;16852;51.446;6.528;2022-12-07T12:57:26;7.70;99.90
27858;DHT22;16852;51.446;6.528;2022-12-07T12:59:38;7.70;99.90
27858;DHT22;16852;51.446;6.528;2022-12-07T13:01:42;7.70;99.90
27858;DHT22;16852;51.446;6.528;2022-12-07T13:03:53;7.70;99.90
27858;DHT22;16852;51.446;6.528;2022-12-07T13:06:17;7.70;99.90
27858;DHT22;16852;51.446;6.528;2022-12-07T13:08:21;7.70;99.90
27858;DHT22;16852;51.446;6.528;2022-12-07T13:12:25;7.70;99.90
27858;DHT22;16852;51.446;6.528;2022-12-07T13:16:41;7.70;99.90
27858;DHT22;16852;51.446;6.528;2022-12-07T13:18:42;7.70;99.90
27858;DHT22;16852;51.446;6.528;2022-12-07T13:20:51;7.60;99.90
27858;DHT22;16852;51.446;6.528;2022-12-07T13:22:53;7.70;99.90
27858;DHT22;16852;51.446;6.528;2022-12-07T13:25:46;7.60;99.90
27858;DHT22;16852;51.446;6.528;2022-12-07T13:27:21;7.60;99.90
27858;DHT22;16852;51.446;6.528;2022-12-07T13:29:22;7.60;99.90
27858;DHT22;16852;51.446;6.528;2022-12-07T13:33:44;7.60;99.90
27858;DHT22;16852;51.446;6.528;2022-12-07T13:35:45;7.70;99.90
27858;DHT22;16852;51.446;6.528;2022-12-07T13:37:46;7.70;99.90
27858;DHT22;16852;51.446;6.528;2022-12-07T13:39:51;7.60;99.90
27858;DHT22;16852;51.446;6.528;2022-12-07T13:41:54;7.60;99.90
27858;DHT22;16852;51.446;6.528;2022-12-07T13:44:10;7.60;99.90
27858;DHT22;16852;51.446;6.528;2022-12-07T13:46:11;7.60;99.90
27858;DHT22;16852;51.446;6.528;2022-12-07T13:49:13;7.60;99.90
27858;DHT22;16852;51.446;6.528;2022-12-07T13:50:41;7.60;99.90
27858;DHT22;16852;51.446;6.528;2022-12-07T13:52:44;7.60;99.90
27858;DHT22;16852;51.446;6.528;2022-12-07T13:55:22;7.60;99.90
27858;DHT22;16852;51.446;6.528;2022-12-07T13:57:24;7.60;99.90
27858;DHT22;16852;51.446;6.528;2022-12-07T13:59:25;7.60;99.90
27858;DHT22;16852;51.446;6.528;2022-12-07T14:01:27;7.60;99.90
27858;DHT22;16852;51.446;6.528;2022-12-07T14:03:33;7.60;99.90
27858;DHT22;16852;51.446;6.528;2022-12-07T14:05:35;7.60;99.90
27858;DHT22;16852;51.446;6.528;2022-12-07T14:09:58;7.60;99.90
27858;DHT22;16852;51.446;6.528;2022-12-07T14:11:58;7.50;99.90
27858;DHT22;16852;51.446;6.528;2022-12-07T14:14:05;7.50;99.90
27858;DHT22;16852;51.446;6.528;2022-12-07T14:16:31;7.50;99.90
27858;DHT22;16852;51.446;6.528;2022-12-07T14:18:41;7.50;99.90
27858;DHT22;16852;51.446;6.528;2022-12-07T14:20:42;7.60;99.90
27858;DHT22;16852;51.446;6.528;2022-12-07T14:22:42;7.50;99.90
27858;DHT22;16852;51.446;6.528;2022-12-07T14:24:43;7.50;99.90
27858;DHT22;16852;51.446;6.528;2022-12-07T14:26:46;7.50;99.90
27858;DHT22;16852;51.446;6.528;2022-12-07T14:28:47;7.50;99.90
27858;DHT22;16852;51.446;6.528;2022-12-07T14:30:47;7.50;99.90
27858;DHT22;16852;51.446;6.528;2022-12-07T14:32:52;7.50;99.90
27858;DHT22;16852;51.446;6.528;2022-12-07T14:35:02;7.50;99.90
27858;DHT22;16852;51.446;6.528;2022-12-07T14:37:06;7.50;99.90
27858;DHT22;16852;51.446;6.528;2022-12-07T14:39:07;7.50;99.90
27858;DHT22;16852;51.446;6.528;2022-12-07T14:41:17;7.50;99.90